createdAt,value
2023-01-13T00:01:28.955Z,16.42
2023-01-13T00:03:56.372Z,16.42
2023-01-13T00:06:29.162Z,16.39
2023-01-13T00:08:56.082Z,16.40
2023-01-13T00:11:23.260Z,16.38
2023-01-13T00:13:50.348Z,16.39
2023-01-13T00:16:18.506Z,16.43
2023-01-13T00:18:46.737Z,16.39
2023-01-13T00:21:19.379Z,16.37
2023-01-13T00:23:46.429Z,16.36
2023-01-13T00:26:18.855Z,16.34
2023-01-13T00:28:45.943Z,16.37
2023-01-13T00:31:18.287Z,16.33
2023-01-13T00:33:45.276Z,16.30
2023-01-13T00:36:14.366Z,16.26
2023-01-13T00:38:43.046Z,16.26
2023-01-13T00:41:12.459Z,16.19
2023-01-13T00:43:39.440Z,16.23
2023-01-13T00:46:08.225Z,16.26
2023-01-13T00:48:35.618Z,16.18
2023-01-13T00:51:21.726Z,16.15
2023-01-13T00:53:51.054Z,16.17
2023-01-13T00:56:38.594Z,16.22
2023-01-13T00:59:06.385Z,16.20
2023-01-13T01:01:33.330Z,16.22
2023-01-13T01:04:00.278Z,16.13
2023-01-13T01:06:28.043Z,16.14
2023-01-13T01:08:55.831Z,16.12
2023-01-13T01:11:28.237Z,16.11
2023-01-13T01:13:57.321Z,16.08
2023-01-13T01:16:25.791Z,16.03
2023-01-13T01:18:53.877Z,15.99
2023-01-13T01:21:22.198Z,16.01
2023-01-13T01:23:48.833Z,15.95
2023-01-13T01:26:19.419Z,15.95
2023-01-13T01:28:46.904Z,16.00
2023-01-13T01:31:25.360Z,15.98
2023-01-13T01:33:54.035Z,15.93
2023-01-13T01:36:23.159Z,15.96
2023-01-13T01:38:50.447Z,15.86
2023-01-13T01:41:21.394Z,15.94
2023-01-13T01:44:00.218Z,15.86
2023-01-13T01:46:32.674Z,15.93
2023-01-13T01:49:24.801Z,15.81
2023-01-13T01:51:57.403Z,15.84
2023-01-13T01:54:43.567Z,15.82
2023-01-13T01:57:15.935Z,15.82
2023-01-13T01:59:43.909Z,15.74
2023-01-13T02:02:11.390Z,15.74
2023-01-13T02:04:41.206Z,15.73
2023-01-13T02:07:08.517Z,15.72
2023-01-13T02:09:36.502Z,15.76
2023-01-13T02:12:21.744Z,15.71
2023-01-13T02:14:48.539Z,15.69
2023-01-13T02:17:21.246Z,15.66
2023-01-13T02:20:28.018Z,15.62
2023-01-13T02:23:47.691Z,15.63
2023-01-13T02:26:39.252Z,15.66
2023-01-13T02:29:52.972Z,15.67
2023-01-13T02:32:32.224Z,15.67
2023-01-13T02:35:17.832Z,15.58
2023-01-13T02:37:45.227Z,15.72
2023-01-13T02:40:38.022Z,15.64
2023-01-13T02:43:33.499Z,15.58
2023-01-13T02:46:14.643Z,15.57
2023-01-13T02:48:45.304Z,15.56
2023-01-13T02:51:19.144Z,15.59
2023-01-13T02:54:21.731Z,15.62
2023-01-13T02:56:51.169Z,15.61
2023-01-13T02:59:18.839Z,15.57
2023-01-13T03:01:46.873Z,15.53
2023-01-13T03:04:53.338Z,15.48
2023-01-13T03:07:30.485Z,15.49
2023-01-13T03:10:20.106Z,15.50
2023-01-13T03:12:56.534Z,15.46
2023-01-13T03:15:40.373Z,15.49
2023-01-13T03:18:19.619Z,15.50
2023-01-13T03:20:58.614Z,15.56
2023-01-13T03:23:33.228Z,15.40
2023-01-13T03:26:16.412Z,15.35
2023-01-13T03:28:49.621Z,15.35
2023-01-13T03:31:24.584Z,15.50
2023-01-13T03:33:59.706Z,15.46
2023-01-13T03:36:28.978Z,15.43
2023-01-13T03:39:04.115Z,15.46
2023-01-13T03:42:03.975Z,15.36
2023-01-13T03:44:35.749Z,15.43
2023-01-13T03:47:21.088Z,15.42
2023-01-13T03:50:16.337Z,15.40
2023-01-13T03:52:51.034Z,15.44
2023-01-13T03:55:22.674Z,15.43
2023-01-13T03:57:56.818Z,15.35
2023-01-13T04:00:28.420Z,15.44
2023-01-13T04:03:05.188Z,15.36
2023-01-13T04:05:36.391Z,15.36
2023-01-13T04:08:15.717Z,15.36
2023-01-13T04:10:48.013Z,15.36
2023-01-13T04:13:21.937Z,15.24
2023-01-13T04:15:49.969Z,15.27
2023-01-13T04:18:18.700Z,15.25
2023-01-13T04:20:48.001Z,15.24
2023-01-13T04:23:14.910Z,15.25
2023-01-13T04:25:42.519Z,15.20
2023-01-13T04:28:10.041Z,15.20
2023-01-13T04:30:37.790Z,15.24
2023-01-13T04:33:05.276Z,15.16
2023-01-13T04:35:33.562Z,15.21
2023-01-13T04:38:11.494Z,15.20
2023-01-13T04:40:39.059Z,15.24
2023-01-13T04:43:06.258Z,15.14
2023-01-13T04:45:33.387Z,15.18
2023-01-13T04:48:00.586Z,15.11
2023-01-13T04:50:27.915Z,15.17
2023-01-13T04:52:55.385Z,15.15
2023-01-13T04:55:25.788Z,15.13
2023-01-13T04:57:52.719Z,15.16
2023-01-13T05:00:21.967Z,15.11
2023-01-13T05:02:51.573Z,15.04
2023-01-13T05:05:18.634Z,15.10
2023-01-13T05:07:48.850Z,15.11
2023-01-13T05:10:16.003Z,15.16
2023-01-13T05:13:01.182Z,15.19
2023-01-13T05:15:46.412Z,15.10
2023-01-13T05:18:13.362Z,15.11
2023-01-13T05:20:40.372Z,15.12
2023-01-13T05:23:30.161Z,15.10
2023-01-13T05:25:56.866Z,15.07
2023-01-13T05:28:24.583Z,15.06
2023-01-13T05:30:52.417Z,14.99
2023-01-13T05:33:23.201Z,15.09
2023-01-13T05:35:50.087Z,15.06
2023-01-13T05:38:18.088Z,15.00
2023-01-13T05:41:03.644Z,15.01
2023-01-13T05:43:30.668Z,15.00
2023-01-13T05:46:08.242Z,14.87
2023-01-13T05:48:40.295Z,14.99
2023-01-13T05:51:09.537Z,15.03
2023-01-13T05:53:36.478Z,15.01
2023-01-13T05:56:07.324Z,15.09
2023-01-13T05:58:34.897Z,15.13
2023-01-13T06:01:05.484Z,15.14
2023-01-13T06:03:32.172Z,14.84
2023-01-13T06:06:01.689Z,14.77
2023-01-13T06:08:28.672Z,15.05
2023-01-13T06:10:55.518Z,15.09
2023-01-13T06:13:22.731Z,15.04
2023-01-13T06:15:49.432Z,14.87
2023-01-13T06:18:16.267Z,14.86
2023-01-13T06:20:42.925Z,14.88
2023-01-13T06:23:11.660Z,14.84
2023-01-13T06:25:50.607Z,14.80
2023-01-13T06:28:17.340Z,14.85
2023-01-13T06:30:49.220Z,14.79
2023-01-13T06:33:26.914Z,14.78
2023-01-13T06:35:58.935Z,14.79
2023-01-13T06:38:29.166Z,14.80
2023-01-13T06:40:56.641Z,14.74
2023-01-13T06:43:23.769Z,14.76
2023-01-13T06:45:55.622Z,14.72
2023-01-13T06:48:30.015Z,14.67
2023-01-13T06:50:57.272Z,14.72
2023-01-13T06:53:24.405Z,14.75
2023-01-13T06:55:51.327Z,14.63
2023-01-13T06:58:18.192Z,14.65
2023-01-13T07:00:44.900Z,14.66
2023-01-13T07:03:16.271Z,14.68
2023-01-13T07:05:50.831Z,14.59
2023-01-13T07:08:17.814Z,14.62
2023-01-13T07:10:44.454Z,14.54
2023-01-13T07:13:29.917Z,14.55
2023-01-13T07:15:59.171Z,14.62
2023-01-13T07:18:27.737Z,14.62
2023-01-13T07:21:03.387Z,14.55
2023-01-13T07:23:32.747Z,14.58
2023-01-13T07:25:59.600Z,14.53
2023-01-13T07:28:27.601Z,14.63
2023-01-13T07:30:54.436Z,14.60
2023-01-13T07:33:21.600Z,14.54
2023-01-13T07:35:49.126Z,14.52
2023-01-13T07:38:16.260Z,14.55
2023-01-13T07:40:43.083Z,14.50
2023-01-13T07:43:31.086Z,14.54
2023-01-13T07:46:07.150Z,14.67
2023-01-13T07:48:34.880Z,14.59
2023-01-13T07:51:03.307Z,14.66
2023-01-13T07:53:30.182Z,14.79
2023-01-13T07:55:58.322Z,14.93
2023-01-13T07:58:26.514Z,15.03
2023-01-13T08:00:53.954Z,15.17
2023-01-13T08:03:21.240Z,15.28
2023-01-13T08:05:48.404Z,15.28
2023-01-13T08:08:15.836Z,15.40
2023-01-13T08:10:42.550Z,15.44
2023-01-13T08:13:17.597Z,15.51
2023-01-13T08:15:45.152Z,15.61
2023-01-13T08:18:12.405Z,15.66
2023-01-13T08:20:39.271Z,15.79
2023-01-13T08:23:07.353Z,15.86
2023-01-13T08:25:36.458Z,15.88
2023-01-13T08:28:03.657Z,15.85
2023-01-13T08:30:30.578Z,15.84
2023-01-13T08:32:57.468Z,15.87
2023-01-13T08:35:24.520Z,15.92
2023-01-13T08:37:51.770Z,15.93
2023-01-13T08:40:20.792Z,15.98
2023-01-13T08:42:48.691Z,15.97
2023-01-13T08:45:15.662Z,15.99
2023-01-13T08:47:42.690Z,16.00
2023-01-13T08:50:10.579Z,16.02
2023-01-13T08:52:37.494Z,16.10
2023-01-13T08:55:04.490Z,16.21
2023-01-13T08:57:31.200Z,16.10
2023-01-13T08:59:57.908Z,16.06
2023-01-13T09:02:26.129Z,16.06
2023-01-13T09:04:53.977Z,16.06
2023-01-13T09:07:21.483Z,16.09
2023-01-13T09:09:48.386Z,16.13
2023-01-13T09:12:34.787Z,16.10
2023-01-13T09:15:02.095Z,16.11
2023-01-13T09:17:29.011Z,16.10
2023-01-13T09:19:55.772Z,16.14
2023-01-13T09:22:26.925Z,16.12
2023-01-13T09:24:55.109Z,16.15
2023-01-13T09:27:23.613Z,16.13
2023-01-13T09:29:50.470Z,16.16
2023-01-13T09:32:17.136Z,16.25
2023-01-13T09:35:02.315Z,16.24
2023-01-13T09:37:35.348Z,16.21
2023-01-13T09:40:03.993Z,16.27
2023-01-13T09:43:12.399Z,16.27
2023-01-13T09:45:49.725Z,16.29
2023-01-13T09:48:24.705Z,16.29
2023-01-13T09:50:58.625Z,16.28
2023-01-13T09:53:39.974Z,16.33
2023-01-13T09:56:11.044Z,16.37
2023-01-13T09:58:37.853Z,16.29
2023-01-13T10:01:08.649Z,16.38
2023-01-13T10:03:38.089Z,16.37
2023-01-13T10:06:10.980Z,16.39
2023-01-13T10:08:45.211Z,16.37
2023-01-13T10:11:38.917Z,16.43
2023-01-13T10:14:27.379Z,16.38
2023-01-13T10:17:28.072Z,16.42
2023-01-13T10:20:17.882Z,16.41
2023-01-13T10:22:50.596Z,16.45
2023-01-13T10:25:38.993Z,16.41
2023-01-13T10:28:11.325Z,16.46
2023-01-13T10:30:44.097Z,16.43
2023-01-13T10:33:17.545Z,16.43
2023-01-13T10:36:03.947Z,16.50
2023-01-13T10:38:48.560Z,16.47
2023-01-13T10:41:15.243Z,16.46
2023-01-13T10:44:04.453Z,16.51
2023-01-13T10:47:02.531Z,16.46
2023-01-13T10:49:32.952Z,16.48
2023-01-13T10:52:02.070Z,16.46
2023-01-13T10:54:29.503Z,16.47
2023-01-13T10:57:36.237Z,16.47
2023-01-13T11:00:05.368Z,16.50
2023-01-13T11:02:35.869Z,16.49
2023-01-13T11:05:16.149Z,16.48
2023-01-13T11:07:52.651Z,16.51
2023-01-13T11:10:23.393Z,16.58
2023-01-13T11:13:14.980Z,16.68
2023-01-13T11:16:16.581Z,16.73
2023-01-13T11:19:14.374Z,16.84
2023-01-13T11:21:56.169Z,16.82
2023-01-13T11:24:36.351Z,16.98
2023-01-13T11:27:17.725Z,16.94
2023-01-13T11:29:59.256Z,16.99
2023-01-13T11:32:31.172Z,16.99
2023-01-13T11:35:03.107Z,17.02
2023-01-13T11:37:40.055Z,17.07
2023-01-13T11:40:25.631Z,17.09
2023-01-13T11:43:03.851Z,17.02
2023-01-13T11:45:55.257Z,17.06
2023-01-13T11:48:27.088Z,16.99
2023-01-13T11:51:16.109Z,17.02
2023-01-13T11:54:16.353Z,17.06
2023-01-13T11:57:10.677Z,17.04
2023-01-13T12:00:09.437Z,17.00
2023-01-13T12:02:48.371Z,17.07
2023-01-13T12:05:23.891Z,17.01
2023-01-13T12:08:20.326Z,16.99
2023-01-13T12:10:58.666Z,17.04
2023-01-13T12:13:46.905Z,17.00
2023-01-13T12:16:25.436Z,17.04
2023-01-13T12:19:19.497Z,17.01
2023-01-13T12:21:57.877Z,17.12
2023-01-13T12:24:39.708Z,17.08
2023-01-13T12:27:15.999Z,17.08
2023-01-13T12:29:44.778Z,17.09
2023-01-13T12:32:21.312Z,17.10
2023-01-13T12:35:11.475Z,17.07
2023-01-13T12:38:01.587Z,17.13
2023-01-13T12:41:15.521Z,17.11
2023-01-13T12:44:06.385Z,17.05
2023-01-13T12:46:34.602Z,17.09
2023-01-13T12:49:01.416Z,17.13
2023-01-13T12:51:57.247Z,17.11
2023-01-13T12:54:45.077Z,17.13
2023-01-13T12:57:21.548Z,17.22
2023-01-13T13:00:03.013Z,17.42
2023-01-13T13:02:34.481Z,17.43
2023-01-13T13:05:24.218Z,17.43
2023-01-13T13:08:25.826Z,17.37
2023-01-13T13:11:02.766Z,17.37
2023-01-13T13:13:48.496Z,17.39
2023-01-13T13:16:27.413Z,17.39
2023-01-13T13:19:20.253Z,17.37
2023-01-13T13:22:16.420Z,17.37
2023-01-13T13:25:03.043Z,17.35
2023-01-13T13:27:40.237Z,17.36
2023-01-13T13:30:30.399Z,17.36
2023-01-13T13:33:15.840Z,17.35
2023-01-13T13:36:13.319Z,17.35
2023-01-13T13:39:31.036Z,17.33
2023-01-13T13:42:30.330Z,17.35
2023-01-13T13:45:18.291Z,17.33
2023-01-13T13:47:45.083Z,17.36
2023-01-13T13:50:20.434Z,17.34
2023-01-13T13:53:05.292Z,17.35
2023-01-13T13:55:32.890Z,17.36
2023-01-13T13:58:01.636Z,17.32
2023-01-13T14:00:32.034Z,17.35
2023-01-13T14:03:21.816Z,17.32
2023-01-13T14:05:59.374Z,17.36
2023-01-13T14:08:28.661Z,17.29
2023-01-13T14:10:55.186Z,17.32
2023-01-13T14:13:27.794Z,17.35
2023-01-13T14:16:01.945Z,17.33
2023-01-13T14:18:32.899Z,17.34
2023-01-13T14:21:05.688Z,17.35
2023-01-13T14:23:34.147Z,17.35
2023-01-13T14:26:06.941Z,17.36
2023-01-13T14:28:40.860Z,17.37
2023-01-13T14:31:09.582Z,17.37
2023-01-13T14:33:41.842Z,17.37
2023-01-13T14:36:14.772Z,17.40
2023-01-13T14:38:43.324Z,17.47
2023-01-13T14:41:28.339Z,17.44
2023-01-13T14:43:59.232Z,17.46
2023-01-13T14:46:43.696Z,17.49
2023-01-13T14:49:31.079Z,17.45
2023-01-13T14:52:28.109Z,17.48
2023-01-13T14:55:15.098Z,17.47
2023-01-13T14:57:41.894Z,17.49
2023-01-13T15:00:14.129Z,17.48
2023-01-13T15:02:47.769Z,17.45
2023-01-13T15:05:36.085Z,17.45
2023-01-13T15:08:12.193Z,17.44
2023-01-13T15:10:44.953Z,17.42
2023-01-13T15:13:24.502Z,17.42
2023-01-13T15:15:55.836Z,17.43
2023-01-13T15:18:22.603Z,17.43
2023-01-13T15:20:50.917Z,17.42
2023-01-13T15:23:19.334Z,17.45
2023-01-13T15:25:47.596Z,17.47
2023-01-13T15:28:19.557Z,17.46
2023-01-13T15:30:47.170Z,17.46
2023-01-13T15:33:14.976Z,17.45
2023-01-13T15:35:47.317Z,17.45
2023-01-13T15:38:18.950Z,17.42
2023-01-13T15:40:46.540Z,17.44
2023-01-13T15:43:40.295Z,17.44
2023-01-13T15:46:38.505Z,17.45
2023-01-13T15:49:13.420Z,17.47
2023-01-13T15:51:40.366Z,17.44
2023-01-13T15:54:24.553Z,17.43
2023-01-13T15:56:52.417Z,17.44
2023-01-13T15:59:24.014Z,17.45
2023-01-13T16:01:50.770Z,17.46
2023-01-13T16:04:17.574Z,17.45
2023-01-13T16:06:44.724Z,17.47
2023-01-13T16:09:14.279Z,17.46
2023-01-13T16:11:41.202Z,17.44
2023-01-13T16:14:08.079Z,17.42
2023-01-13T16:16:35.740Z,17.43
2023-01-13T16:19:02.666Z,17.41
2023-01-13T16:21:29.422Z,17.46
2023-01-13T16:23:56.135Z,17.44
2023-01-13T16:26:25.855Z,17.47
2023-01-13T16:28:54.874Z,17.47
2023-01-13T16:31:31.915Z,17.39
2023-01-13T16:34:00.486Z,17.44
2023-01-13T16:36:29.168Z,17.44
2023-01-13T16:38:57.259Z,17.44
2023-01-13T16:41:25.041Z,17.50
2023-01-13T16:44:10.518Z,17.65
2023-01-13T16:46:37.204Z,17.73
2023-01-13T16:49:06.253Z,17.73
2023-01-13T16:51:33.752Z,17.58
2023-01-13T16:54:00.580Z,17.48
2023-01-13T16:56:28.510Z,17.45
2023-01-13T16:58:57.861Z,17.52
2023-01-13T17:01:26.384Z,17.52
2023-01-13T17:03:53.968Z,17.53
2023-01-13T17:06:25.503Z,17.50
2023-01-13T17:08:57.475Z,17.49
2023-01-13T17:11:24.147Z,17.53
2023-01-13T17:13:50.948Z,17.52
2023-01-13T17:16:22.708Z,17.51
2023-01-13T17:18:50.463Z,17.48
2023-01-13T17:21:17.578Z,17.49
2023-01-13T17:23:44.769Z,17.50
2023-01-13T17:26:37.127Z,17.43
2023-01-13T17:29:07.180Z,17.46
2023-01-13T17:31:35.683Z,17.48
2023-01-13T17:34:04.117Z,17.47
2023-01-13T17:36:31.069Z,17.53
2023-01-13T17:38:58.294Z,17.57
2023-01-13T17:41:25.977Z,17.62
2023-01-13T17:43:53.608Z,17.65
2023-01-13T17:46:24.730Z,17.69
2023-01-13T17:48:53.621Z,17.71
2023-01-13T17:51:22.680Z,17.71
2023-01-13T17:53:49.665Z,17.79
2023-01-13T17:56:17.255Z,17.87
2023-01-13T17:58:45.483Z,17.76
2023-01-13T18:01:18.605Z,17.70
2023-01-13T18:03:46.002Z,17.64
2023-01-13T18:06:23.613Z,17.67
2023-01-13T18:08:51.651Z,17.64
2023-01-13T18:11:21.332Z,17.63
2023-01-13T18:13:50.125Z,17.59
2023-01-13T18:16:19.218Z,17.59
2023-01-13T18:18:48.166Z,17.56
2023-01-13T18:21:41.389Z,17.57
2023-01-13T18:24:32.091Z,17.57
2023-01-13T18:27:18.234Z,17.51
2023-01-13T18:29:46.092Z,17.47
2023-01-13T18:32:13.688Z,17.43
2023-01-13T18:34:40.822Z,17.43
2023-01-13T18:37:09.476Z,17.38
2023-01-13T18:39:37.459Z,17.39
2023-01-13T18:42:24.598Z,17.37
2023-01-13T18:44:52.568Z,17.38
2023-01-13T18:47:19.286Z,17.41
2023-01-13T18:49:46.636Z,17.38
2023-01-13T18:52:13.737Z,17.38
2023-01-13T18:54:40.348Z,17.39
2023-01-13T18:57:07.336Z,17.38
2023-01-13T18:59:34.734Z,17.32
2023-01-13T19:02:02.934Z,17.40
2023-01-13T19:04:29.832Z,17.35
2023-01-13T19:07:00.916Z,17.37
2023-01-13T19:09:29.187Z,17.37
2023-01-13T19:11:57.321Z,17.34
2023-01-13T19:14:34.263Z,17.34
2023-01-13T19:17:09.819Z,17.27
2023-01-13T19:19:44.654Z,17.27
2023-01-13T19:22:13.898Z,17.30
2023-01-13T19:24:43.679Z,17.28
2023-01-13T19:27:12.173Z,17.29
2023-01-13T19:29:51.601Z,17.27
2023-01-13T19:32:21.890Z,17.28
2023-01-13T19:34:51.228Z,17.21
2023-01-13T19:37:19.477Z,17.25
2023-01-13T19:39:46.077Z,17.27
2023-01-13T19:42:32.277Z,17.23
2023-01-13T19:45:17.227Z,17.28
2023-01-13T19:47:45.514Z,17.29
2023-01-13T19:50:13.630Z,17.23
2023-01-13T19:52:41.864Z,17.23
2023-01-13T19:55:09.842Z,17.29
2023-01-13T19:57:38.251Z,17.33
2023-01-13T20:00:07.995Z,17.27
2023-01-13T20:02:49.075Z,17.30
2023-01-13T20:05:25.931Z,17.33
2023-01-13T20:07:53.036Z,17.32
2023-01-13T20:10:21.895Z,17.29
2023-01-13T20:12:48.804Z,17.32
2023-01-13T20:15:15.958Z,17.30
2023-01-13T20:17:42.788Z,17.29
2023-01-13T20:20:10.729Z,17.33
2023-01-13T20:22:38.693Z,17.34
2023-01-13T20:25:06.326Z,17.31
2023-01-13T20:27:33.248Z,17.28
2023-01-13T20:30:00.106Z,17.43
2023-01-13T20:32:26.901Z,17.47
2023-01-13T20:34:53.562Z,17.49
2023-01-13T20:37:20.151Z,17.55
2023-01-13T20:39:47.501Z,17.61
2023-01-13T20:42:29.435Z,17.60
2023-01-13T20:44:57.671Z,17.62
2023-01-13T20:47:25.845Z,17.61
2023-01-13T20:49:54.926Z,17.61
2023-01-13T20:52:21.660Z,17.57
2023-01-13T20:54:48.333Z,17.58
2023-01-13T20:57:14.950Z,17.60
2023-01-13T20:59:41.845Z,17.67
2023-01-13T21:02:13.240Z,17.55
2023-01-13T21:04:40.542Z,17.57
2023-01-13T21:07:08.174Z,17.61
2023-01-13T21:09:35.029Z,17.58
2023-01-13T21:12:20.602Z,17.59
2023-01-13T21:15:06.087Z,17.47
2023-01-13T21:17:51.343Z,17.47
2023-01-13T21:20:18.468Z,17.43
2023-01-13T21:22:46.819Z,17.44
2023-01-13T21:25:14.549Z,17.38
2023-01-13T21:27:43.821Z,17.35
2023-01-13T21:30:15.084Z,17.33
2023-01-13T21:32:43.606Z,17.32
2023-01-13T21:35:11.828Z,17.25
2023-01-13T21:37:39.983Z,17.23
2023-01-13T21:40:10.223Z,17.21
2023-01-13T21:42:55.851Z,17.18
2023-01-13T21:45:41.714Z,17.20
2023-01-13T21:48:08.817Z,17.13
2023-01-13T21:50:37.293Z,17.04
2023-01-13T21:53:04.509Z,16.98
2023-01-13T21:55:32.338Z,16.95
2023-01-13T21:58:11.690Z,16.88
2023-01-13T22:00:41.940Z,16.89
2023-01-13T22:03:09.911Z,16.86
2023-01-13T22:05:36.862Z,16.80
2023-01-13T22:08:04.127Z,16.77
2023-01-13T22:10:31.661Z,16.69
2023-01-13T22:13:20.648Z,16.63
2023-01-13T22:15:47.494Z,16.61
2023-01-13T22:18:14.281Z,16.55
2023-01-13T22:20:42.053Z,16.50
2023-01-13T22:23:08.753Z,16.47
2023-01-13T22:25:35.450Z,16.42
2023-01-13T22:28:05.985Z,16.39
2023-01-13T22:30:33.329Z,16.36
2023-01-13T22:33:00.729Z,16.35
2023-01-13T22:35:27.541Z,16.29
2023-01-13T22:37:54.246Z,16.28
2023-01-13T22:40:21.047Z,16.24
2023-01-13T22:42:47.866Z,16.20
2023-01-13T22:45:14.718Z,16.16
2023-01-13T22:47:41.501Z,16.15
2023-01-13T22:50:09.155Z,16.13
2023-01-13T22:52:35.850Z,16.09
2023-01-13T22:55:03.060Z,16.07
2023-01-13T22:57:36.083Z,16.00
2023-01-13T23:00:06.861Z,16.02
2023-01-13T23:02:34.612Z,16.00
2023-01-13T23:05:01.807Z,15.97
2023-01-13T23:07:28.838Z,15.97
2023-01-13T23:09:55.739Z,15.95
2023-01-13T23:12:22.727Z,15.91
2023-01-13T23:14:49.867Z,15.90
2023-01-13T23:17:16.695Z,15.85
2023-01-13T23:19:46.843Z,15.84
2023-01-13T23:22:13.597Z,15.82
2023-01-13T23:24:40.310Z,15.78
2023-01-13T23:27:07.202Z,15.78
2023-01-13T23:29:33.831Z,15.77
2023-01-13T23:32:00.532Z,15.72
2023-01-13T23:34:27.149Z,15.72
2023-01-13T23:36:53.803Z,15.70
2023-01-13T23:39:20.519Z,15.65
2023-01-13T23:41:47.389Z,15.62
2023-01-13T23:44:14.016Z,15.61
2023-01-13T23:46:40.846Z,15.57
2023-01-13T23:49:08.051Z,15.55
2023-01-13T23:51:34.801Z,15.51
2023-01-13T23:54:01.671Z,15.51
2023-01-13T23:56:31.100Z,15.48
2023-01-13T23:58:57.936Z,15.48
